sensor_id;sensor_type;location;lat;lon;timestamp;P1;durP1;ratioP1;P2;durP2;ratioP2
27209;SDS011;14721;42.668;23.386;2023-02-02T00:01:39;2.27;;;1.30;;
27209;SDS011;14721;42.668;23.386;2023-02-02T00:04:06;3.20;;;1.30;;
27209;SDS011;14721;42.668;23.386;2023-02-02T00:06:32;4.47;;;1.13;;
27209;SDS011;14721;42.668;23.386;2023-02-02T00:09:00;3.07;;;1.20;;
27209;SDS011;14721;42.668;23.386;2023-02-02T00:11:26;5.33;;;1.23;;
27209;SDS011;14721;42.668;23.386;2023-02-02T00:13:52;2.40;;;1.03;;
27209;SDS011;14721;42.668;23.386;2023-02-02T00:18:49;5.23;;;1.70;;
27209;SDS011;14721;42.668;23.386;2023-02-02T00:21:15;4.37;;;1.17;;
27209;SDS011;14721;42.668;23.386;2023-02-02T00:23:40;2.70;;;1.23;;
27209;SDS011;14721;42.668;23.386;2023-02-02T00:26:06;4.77;;;1.80;;
27209;SDS011;14721;42.668;23.386;2023-02-02T00:28:31;5.83;;;1.60;;
27209;SDS011;14721;42.668;23.386;2023-02-02T00:30:57;2.73;;;1.37;;
27209;SDS011;14721;42.668;23.386;2023-02-02T00:33:23;3.40;;;1.50;;
27209;SDS011;14721;42.668;23.386;2023-02-02T00:35:50;3.53;;;1.23;;
27209;SDS011;14721;42.668;23.386;2023-02-02T00:38:16;4.77;;;1.30;;
27209;SDS011;14721;42.668;23.386;2023-02-02T00:40:42;4.97;;;1.50;;
27209;SDS011;14721;42.668;23.386;2023-02-02T00:43:07;6.70;;;1.53;;
27209;SDS011;14721;42.668;23.386;2023-02-02T00:45:35;2.87;;;1.30;;
27209;SDS011;14721;42.668;23.386;2023-02-02T00:48:01;4.47;;;1.40;;
27209;SDS011;14721;42.668;23.386;2023-02-02T00:50:27;4.30;;;1.60;;
27209;SDS011;14721;42.668;23.386;2023-02-02T00:52:56;5.47;;;1.70;;
27209;SDS011;14721;42.668;23.386;2023-02-02T00:55:23;7.17;;;1.93;;
27209;SDS011;14721;42.668;23.386;2023-02-02T00:57:50;5.20;;;2.37;;
27209;SDS011;14721;42.668;23.386;2023-02-02T01:00:17;3.20;;;2.13;;
27209;SDS011;14721;42.668;23.386;2023-02-02T01:02:45;6.70;;;1.60;;
27209;SDS011;14721;42.668;23.386;2023-02-02T01:05:11;8.03;;;2.40;;
27209;SDS011;14721;42.668;23.386;2023-02-02T01:07:37;5.63;;;2.07;;
27209;SDS011;14721;42.668;23.386;2023-02-02T01:10:03;4.17;;;1.47;;
27209;SDS011;14721;42.668;23.386;2023-02-02T01:12:32;6.87;;;2.23;;
27209;SDS011;14721;42.668;23.386;2023-02-02T01:14:58;5.37;;;2.07;;
27209;SDS011;14721;42.668;23.386;2023-02-02T01:17:24;4.97;;;1.63;;
27209;SDS011;14721;42.668;23.386;2023-02-02T01:19:49;5.03;;;2.00;;
27209;SDS011;14721;42.668;23.386;2023-02-02T01:22:14;5.27;;;2.07;;
27209;SDS011;14721;42.668;23.386;2023-02-02T01:24:40;7.10;;;2.20;;
27209;SDS011;14721;42.668;23.386;2023-02-02T01:27:05;6.13;;;2.43;;
27209;SDS011;14721;42.668;23.386;2023-02-02T01:29:31;4.87;;;2.27;;
27209;SDS011;14721;42.668;23.386;2023-02-02T01:31:57;5.27;;;2.97;;
27209;SDS011;14721;42.668;23.386;2023-02-02T01:34:22;9.40;;;3.30;;
27209;SDS011;14721;42.668;23.386;2023-02-02T01:36:48;9.33;;;2.20;;
27209;SDS011;14721;42.668;23.386;2023-02-02T01:39:13;5.57;;;2.57;;
27209;SDS011;14721;42.668;23.386;2023-02-02T01:41:39;4.67;;;2.53;;
27209;SDS011;14721;42.668;23.386;2023-02-02T01:44:55;4.77;;;2.17;;
27209;SDS011;14721;42.668;23.386;2023-02-02T01:47:09;7.80;;;2.93;;
27209;SDS011;14721;42.668;23.386;2023-02-02T01:49:35;9.27;;;2.47;;
27209;SDS011;14721;42.668;23.386;2023-02-02T01:52:02;7.03;;;3.00;;
27209;SDS011;14721;42.668;23.386;2023-02-02T01:54:32;6.90;;;2.67;;
27209;SDS011;14721;42.668;23.386;2023-02-02T01:57:24;7.20;;;2.63;;
27209;SDS011;14721;42.668;23.386;2023-02-02T01:59:50;8.40;;;3.00;;
27209;SDS011;14721;42.668;23.386;2023-02-02T02:02:18;7.70;;;2.60;;
27209;SDS011;14721;42.668;23.386;2023-02-02T02:04:43;9.70;;;2.53;;
27209;SDS011;14721;42.668;23.386;2023-02-02T02:07:09;6.07;;;3.10;;
27209;SDS011;14721;42.668;23.386;2023-02-02T02:09:36;8.33;;;3.83;;
27209;SDS011;14721;42.668;23.386;2023-02-02T02:12:02;5.77;;;2.50;;
27209;SDS011;14721;42.668;23.386;2023-02-02T02:14:28;6.53;;;2.70;;
27209;SDS011;14721;42.668;23.386;2023-02-02T02:20:02;9.57;;;3.03;;
27209;SDS011;14721;42.668;23.386;2023-02-02T02:28:51;6.53;;;2.20;;
27209;SDS011;14721;42.668;23.386;2023-02-02T02:32:12;8.47;;;2.30;;
27209;SDS011;14721;42.668;23.386;2023-02-02T02:42:42;7.43;;;2.23;;
27209;SDS011;14721;42.668;23.386;2023-02-02T02:45:12;9.10;;;2.23;;
27209;SDS011;14721;42.668;23.386;2023-02-02T02:47:39;4.53;;;2.40;;
27209;SDS011;14721;42.668;23.386;2023-02-02T02:50:06;5.20;;;2.03;;
27209;SDS011;14721;42.668;23.386;2023-02-02T02:52:32;5.93;;;2.20;;
27209;SDS011;14721;42.668;23.386;2023-02-02T02:55:00;5.73;;;2.27;;
27209;SDS011;14721;42.668;23.386;2023-02-02T03:11:12;3.13;;;1.70;;
27209;SDS011;14721;42.668;23.386;2023-02-02T03:13:39;6.00;;;1.70;;
27209;SDS011;14721;42.668;23.386;2023-02-02T03:16:06;6.37;;;2.07;;
27209;SDS011;14721;42.668;23.386;2023-02-02T03:18:31;8.27;;;2.53;;
27209;SDS011;14721;42.668;23.386;2023-02-02T03:20:58;5.90;;;2.00;;
27209;SDS011;14721;42.668;23.386;2023-02-02T03:23:23;3.80;;;1.87;;
27209;SDS011;14721;42.668;23.386;2023-02-02T03:25:49;3.37;;;1.97;;
27209;SDS011;14721;42.668;23.386;2023-02-02T03:28:15;6.97;;;2.47;;
27209;SDS011;14721;42.668;23.386;2023-02-02T03:30:41;2.77;;;1.77;;
27209;SDS011;14721;42.668;23.386;2023-02-02T03:33:09;3.57;;;2.30;;
27209;SDS011;14721;42.668;23.386;2023-02-02T03:35:35;5.63;;;1.60;;
27209;SDS011;14721;42.668;23.386;2023-02-02T03:38:01;5.43;;;2.60;;
27209;SDS011;14721;42.668;23.386;2023-02-02T03:40:27;7.77;;;2.27;;
27209;SDS011;14721;42.668;23.386;2023-02-02T03:42:53;6.10;;;2.53;;
27209;SDS011;14721;42.668;23.386;2023-02-02T03:45:19;4.20;;;2.10;;
27209;SDS011;14721;42.668;23.386;2023-02-02T03:47:45;4.60;;;1.97;;
27209;SDS011;14721;42.668;23.386;2023-02-02T03:50:11;6.27;;;2.57;;
27209;SDS011;14721;42.668;23.386;2023-02-02T03:52:37;4.97;;;2.57;;
27209;SDS011;14721;42.668;23.386;2023-02-02T03:55:03;6.77;;;3.30;;
27209;SDS011;14721;42.668;23.386;2023-02-02T03:57:29;9.37;;;3.87;;
27209;SDS011;14721;42.668;23.386;2023-02-02T03:59:55;9.57;;;5.33;;
27209;SDS011;14721;42.668;23.386;2023-02-02T04:02:20;13.40;;;5.07;;
27209;SDS011;14721;42.668;23.386;2023-02-02T04:04:46;10.20;;;4.37;;
27209;SDS011;14721;42.668;23.386;2023-02-02T04:07:11;7.17;;;4.37;;
27209;SDS011;14721;42.668;23.386;2023-02-02T04:09:37;7.10;;;3.53;;
27209;SDS011;14721;42.668;23.386;2023-02-02T04:12:03;7.50;;;4.30;;
27209;SDS011;14721;42.668;23.386;2023-02-02T04:14:28;8.43;;;3.33;;
27209;SDS011;14721;42.668;23.386;2023-02-02T04:16:54;6.03;;;2.77;;
27209;SDS011;14721;42.668;23.386;2023-02-02T04:19:19;6.60;;;3.23;;
27209;SDS011;14721;42.668;23.386;2023-02-02T04:21:45;7.83;;;3.80;;
27209;SDS011;14721;42.668;23.386;2023-02-02T04:24:11;8.17;;;3.80;;
27209;SDS011;14721;42.668;23.386;2023-02-02T04:26:37;6.20;;;2.90;;
27209;SDS011;14721;42.668;23.386;2023-02-02T04:29:03;4.07;;;2.60;;
27209;SDS011;14721;42.668;23.386;2023-02-02T04:31:28;8.03;;;2.47;;
27209;SDS011;14721;42.668;23.386;2023-02-02T04:33:54;5.37;;;2.60;;
27209;SDS011;14721;42.668;23.386;2023-02-02T04:36:21;3.93;;;2.40;;
27209;SDS011;14721;42.668;23.386;2023-02-02T04:38:50;11.13;;;2.90;;
27209;SDS011;14721;42.668;23.386;2023-02-02T04:41:17;9.17;;;2.97;;
27209;SDS011;14721;42.668;23.386;2023-02-02T04:43:45;6.47;;;2.93;;
27209;SDS011;14721;42.668;23.386;2023-02-02T04:46:11;4.17;;;2.70;;
27209;SDS011;14721;42.668;23.386;2023-02-02T04:48:37;5.37;;;2.53;;
27209;SDS011;14721;42.668;23.386;2023-02-02T04:51:04;8.93;;;3.00;;
27209;SDS011;14721;42.668;23.386;2023-02-02T04:53:31;10.27;;;2.83;;
27209;SDS011;14721;42.668;23.386;2023-02-02T04:55:57;5.63;;;2.57;;
27209;SDS011;14721;42.668;23.386;2023-02-02T04:58:29;8.83;;;2.63;;
27209;SDS011;14721;42.668;23.386;2023-02-02T05:00:54;13.90;;;2.53;;
27209;SDS011;14721;42.668;23.386;2023-02-02T05:03:20;4.73;;;2.60;;
27209;SDS011;14721;42.668;23.386;2023-02-02T05:05:45;7.37;;;3.67;;
27209;SDS011;14721;42.668;23.386;2023-02-02T05:08:10;8.13;;;2.87;;
27209;SDS011;14721;42.668;23.386;2023-02-02T05:10:38;10.83;;;2.27;;
27209;SDS011;14721;42.668;23.386;2023-02-02T05:13:05;7.40;;;3.40;;
27209;SDS011;14721;42.668;23.386;2023-02-02T05:15:31;10.33;;;3.07;;
27209;SDS011;14721;42.668;23.386;2023-02-02T05:17:56;8.13;;;3.43;;
27209;SDS011;14721;42.668;23.386;2023-02-02T05:20:23;8.20;;;4.13;;
27209;SDS011;14721;42.668;23.386;2023-02-02T05:22:48;7.07;;;2.93;;
27209;SDS011;14721;42.668;23.386;2023-02-02T05:25:14;7.23;;;3.63;;
27209;SDS011;14721;42.668;23.386;2023-02-02T05:27:41;10.77;;;2.97;;
27209;SDS011;14721;42.668;23.386;2023-02-02T05:30:10;6.57;;;2.80;;
27209;SDS011;14721;42.668;23.386;2023-02-02T05:32:36;8.27;;;2.77;;
27209;SDS011;14721;42.668;23.386;2023-02-02T05:35:02;9.00;;;3.13;;
27209;SDS011;14721;42.668;23.386;2023-02-02T05:37:27;13.17;;;5.40;;
27209;SDS011;14721;42.668;23.386;2023-02-02T05:39:53;12.03;;;4.50;;
27209;SDS011;14721;42.668;23.386;2023-02-02T05:42:18;17.53;;;6.30;;
27209;SDS011;14721;42.668;23.386;2023-02-02T05:44:44;17.20;;;5.13;;
27209;SDS011;14721;42.668;23.386;2023-02-02T05:47:28;11.80;;;5.17;;
27209;SDS011;14721;42.668;23.386;2023-02-02T05:49:53;7.70;;;4.60;;
27209;SDS011;14721;42.668;23.386;2023-02-02T05:52:21;12.73;;;4.67;;
27209;SDS011;14721;42.668;23.386;2023-02-02T05:54:48;6.57;;;3.33;;
27209;SDS011;14721;42.668;23.386;2023-02-02T05:57:14;8.87;;;3.67;;
27209;SDS011;14721;42.668;23.386;2023-02-02T05:59:40;8.30;;;3.63;;
27209;SDS011;14721;42.668;23.386;2023-02-02T06:02:06;9.17;;;4.87;;
27209;SDS011;14721;42.668;23.386;2023-02-02T06:04:31;8.73;;;4.37;;
27209;SDS011;14721;42.668;23.386;2023-02-02T06:06:57;9.93;;;4.63;;
27209;SDS011;14721;42.668;23.386;2023-02-02T06:09:22;9.70;;;5.37;;
27209;SDS011;14721;42.668;23.386;2023-02-02T06:11:49;9.33;;;3.93;;
27209;SDS011;14721;42.668;23.386;2023-02-02T06:14:14;9.30;;;4.77;;
27209;SDS011;14721;42.668;23.386;2023-02-02T06:16:40;14.63;;;6.07;;
27209;SDS011;14721;42.668;23.386;2023-02-02T06:19:06;21.13;;;6.33;;
27209;SDS011;14721;42.668;23.386;2023-02-02T06:21:31;14.60;;;6.40;;
27209;SDS011;14721;42.668;23.386;2023-02-02T06:23:57;15.13;;;6.00;;
27209;SDS011;14721;42.668;23.386;2023-02-02T06:26:23;12.83;;;5.87;;
27209;SDS011;14721;42.668;23.386;2023-02-02T06:28:51;15.17;;;7.07;;
27209;SDS011;14721;42.668;23.386;2023-02-02T06:31:18;14.13;;;5.90;;
27209;SDS011;14721;42.668;23.386;2023-02-02T06:33:45;16.13;;;6.50;;
27209;SDS011;14721;42.668;23.386;2023-02-02T06:36:11;9.53;;;5.23;;
27209;SDS011;14721;42.668;23.386;2023-02-02T06:38:37;16.90;;;7.30;;
27209;SDS011;14721;42.668;23.386;2023-02-02T06:41:02;16.13;;;7.43;;
27209;SDS011;14721;42.668;23.386;2023-02-02T06:43:29;18.17;;;7.67;;
27209;SDS011;14721;42.668;23.386;2023-02-02T06:45:58;16.17;;;7.17;;
27209;SDS011;14721;42.668;23.386;2023-02-02T06:48:24;22.67;;;7.23;;
27209;SDS011;14721;42.668;23.386;2023-02-02T06:50:50;12.77;;;7.63;;
27209;SDS011;14721;42.668;23.386;2023-02-02T06:53:16;17.43;;;7.40;;
27209;SDS011;14721;42.668;23.386;2023-02-02T06:55:57;16.43;;;8.50;;
27209;SDS011;14721;42.668;23.386;2023-02-02T06:58:28;19.83;;;7.37;;
27209;SDS011;14721;42.668;23.386;2023-02-02T07:00:54;19.13;;;8.70;;
27209;SDS011;14721;42.668;23.386;2023-02-02T07:03:25;27.10;;;9.57;;
27209;SDS011;14721;42.668;23.386;2023-02-02T07:05:50;21.67;;;9.30;;
27209;SDS011;14721;42.668;23.386;2023-02-02T07:08:16;28.93;;;11.57;;
27209;SDS011;14721;42.668;23.386;2023-02-02T07:10:41;22.00;;;8.97;;
27209;SDS011;14721;42.668;23.386;2023-02-02T07:13:08;20.43;;;9.47;;
27209;SDS011;14721;42.668;23.386;2023-02-02T07:15:34;27.07;;;9.73;;
27209;SDS011;14721;42.668;23.386;2023-02-02T07:18:02;24.07;;;10.00;;
27209;SDS011;14721;42.668;23.386;2023-02-02T07:20:28;16.13;;;6.77;;
27209;SDS011;14721;42.668;23.386;2023-02-02T07:22:54;19.07;;;7.50;;
27209;SDS011;14721;42.668;23.386;2023-02-02T07:25:19;19.90;;;6.23;;
27209;SDS011;14721;42.668;23.386;2023-02-02T07:27:45;11.77;;;5.37;;
27209;SDS011;14721;42.668;23.386;2023-02-02T07:30:13;13.80;;;5.73;;
27209;SDS011;14721;42.668;23.386;2023-02-02T07:32:45;16.83;;;6.27;;
27209;SDS011;14721;42.668;23.386;2023-02-02T07:35:14;12.37;;;5.57;;
27209;SDS011;14721;42.668;23.386;2023-02-02T07:37:40;17.53;;;7.77;;
27209;SDS011;14721;42.668;23.386;2023-02-02T07:40:07;23.17;;;8.03;;
27209;SDS011;14721;42.668;23.386;2023-02-02T07:42:33;17.40;;;7.60;;
27209;SDS011;14721;42.668;23.386;2023-02-02T07:44:58;18.33;;;7.87;;
27209;SDS011;14721;42.668;23.386;2023-02-02T07:47:25;18.00;;;7.73;;
27209;SDS011;14721;42.668;23.386;2023-02-02T07:49:51;18.07;;;7.70;;
27209;SDS011;14721;42.668;23.386;2023-02-02T07:52:16;17.47;;;9.00;;
27209;SDS011;14721;42.668;23.386;2023-02-02T07:54:42;22.27;;;8.13;;
27209;SDS011;14721;42.668;23.386;2023-02-02T07:57:07;20.37;;;8.50;;
27209;SDS011;14721;42.668;23.386;2023-02-02T07:59:32;20.10;;;7.90;;
27209;SDS011;14721;42.668;23.386;2023-02-02T08:01:58;18.13;;;7.90;;
27209;SDS011;14721;42.668;23.386;2023-02-02T08:04:24;18.97;;;7.17;;
27209;SDS011;14721;42.668;23.386;2023-02-02T08:06:49;17.13;;;7.40;;
27209;SDS011;14721;42.668;23.386;2023-02-02T08:09:15;19.60;;;8.67;;
27209;SDS011;14721;42.668;23.386;2023-02-02T08:11:40;17.70;;;8.73;;
27209;SDS011;14721;42.668;23.386;2023-02-02T08:14:06;21.90;;;8.30;;
27209;SDS011;14721;42.668;23.386;2023-02-02T08:16:32;16.90;;;7.77;;
27209;SDS011;14721;42.668;23.386;2023-02-02T08:18:58;13.60;;;7.23;;
27209;SDS011;14721;42.668;23.386;2023-02-02T08:21:24;15.60;;;7.57;;
27209;SDS011;14721;42.668;23.386;2023-02-02T08:23:50;15.17;;;7.37;;
27209;SDS011;14721;42.668;23.386;2023-02-02T08:26:18;16.60;;;7.23;;
27209;SDS011;14721;42.668;23.386;2023-02-02T08:28:50;13.23;;;6.60;;
27209;SDS011;14721;42.668;23.386;2023-02-02T08:31:18;14.80;;;7.30;;
27209;SDS011;14721;42.668;23.386;2023-02-02T08:33:46;16.47;;;7.20;;
27209;SDS011;14721;42.668;23.386;2023-02-02T08:36:12;21.10;;;7.83;;
27209;SDS011;14721;42.668;23.386;2023-02-02T08:38:39;23.50;;;10.63;;
27209;SDS011;14721;42.668;23.386;2023-02-02T08:41:06;19.30;;;7.70;;
27209;SDS011;14721;42.668;23.386;2023-02-02T08:43:33;18.10;;;7.87;;
27209;SDS011;14721;42.668;23.386;2023-02-02T08:45:59;15.40;;;8.20;;
27209;SDS011;14721;42.668;23.386;2023-02-02T08:48:25;22.63;;;8.80;;
27209;SDS011;14721;42.668;23.386;2023-02-02T08:50:54;20.93;;;9.17;;
27209;SDS011;14721;42.668;23.386;2023-02-02T08:53:21;19.50;;;7.77;;
27209;SDS011;14721;42.668;23.386;2023-02-02T08:55:47;20.87;;;7.47;;
27209;SDS011;14721;42.668;23.386;2023-02-02T08:58:21;18.67;;;7.67;;
27209;SDS011;14721;42.668;23.386;2023-02-02T09:00:46;16.83;;;7.17;;
27209;SDS011;14721;42.668;23.386;2023-02-02T09:03:12;22.57;;;9.30;;
27209;SDS011;14721;42.668;23.386;2023-02-02T09:05:37;16.30;;;7.77;;
27209;SDS011;14721;42.668;23.386;2023-02-02T09:08:03;20.97;;;7.60;;
27209;SDS011;14721;42.668;23.386;2023-02-02T09:10:28;24.50;;;9.60;;
27209;SDS011;14721;42.668;23.386;2023-02-02T09:12:56;15.90;;;8.17;;
27209;SDS011;14721;42.668;23.386;2023-02-02T09:15:24;12.73;;;5.57;;
27209;SDS011;14721;42.668;23.386;2023-02-02T09:17:52;12.17;;;5.60;;
27209;SDS011;14721;42.668;23.386;2023-02-02T09:20:24;16.53;;;5.83;;
27209;SDS011;14721;42.668;23.386;2023-02-02T09:22:53;17.40;;;5.93;;
27209;SDS011;14721;42.668;23.386;2023-02-02T09:25:28;17.20;;;6.60;;
27209;SDS011;14721;42.668;23.386;2023-02-02T09:27:56;18.47;;;6.53;;
27209;SDS011;14721;42.668;23.386;2023-02-02T09:30:22;15.60;;;5.73;;
27209;SDS011;14721;42.668;23.386;2023-02-02T09:32:50;16.90;;;5.93;;
27209;SDS011;14721;42.668;23.386;2023-02-02T09:35:18;10.10;;;6.10;;
27209;SDS011;14721;42.668;23.386;2023-02-02T09:37:46;19.23;;;6.40;;
27209;SDS011;14721;42.668;23.386;2023-02-02T09:40:17;15.57;;;6.80;;
27209;SDS011;14721;42.668;23.386;2023-02-02T09:45:35;15.07;;;5.93;;
27209;SDS011;14721;42.668;23.386;2023-02-02T09:48:27;14.70;;;5.80;;
27209;SDS011;14721;42.668;23.386;2023-02-02T09:51:19;14.93;;;6.50;;
27209;SDS011;14721;42.668;23.386;2023-02-02T09:59:32;16.33;;;5.90;;
27209;SDS011;14721;42.668;23.386;2023-02-02T10:02:23;14.23;;;6.23;;
27209;SDS011;14721;42.668;23.386;2023-02-02T10:05:07;11.37;;;5.03;;
27209;SDS011;14721;42.668;23.386;2023-02-02T10:07:43;13.60;;;5.70;;
27209;SDS011;14721;42.668;23.386;2023-02-02T10:10:19;9.20;;;4.53;;
27209;SDS011;14721;42.668;23.386;2023-02-02T10:13:02;10.90;;;4.60;;
27209;SDS011;14721;42.668;23.386;2023-02-02T10:24:04;4.80;;;2.60;;
27209;SDS011;14721;42.668;23.386;2023-02-02T10:26:41;9.83;;;2.70;;
27209;SDS011;14721;42.668;23.386;2023-02-02T10:29:17;5.27;;;2.97;;
27209;SDS011;14721;42.668;23.386;2023-02-02T10:37:52;7.37;;;3.47;;
27209;SDS011;14721;42.668;23.386;2023-02-02T10:46:44;3.83;;;2.40;;
27209;SDS011;14721;42.668;23.386;2023-02-02T10:49:33;4.43;;;2.60;;
27209;SDS011;14721;42.668;23.386;2023-02-02T10:57:21;5.93;;;1.77;;
27209;SDS011;14721;42.668;23.386;2023-02-02T11:00:09;2.90;;;1.30;;
27209;SDS011;14721;42.668;23.386;2023-02-02T11:02:51;2.63;;;1.33;;
27209;SDS011;14721;42.668;23.386;2023-02-02T11:05:33;4.97;;;1.40;;
27209;SDS011;14721;42.668;23.386;2023-02-02T11:11:10;2.63;;;1.23;;
27209;SDS011;14721;42.668;23.386;2023-02-02T11:13:52;5.63;;;1.57;;
27209;SDS011;14721;42.668;23.386;2023-02-02T11:16:43;3.13;;;1.60;;
27209;SDS011;14721;42.668;23.386;2023-02-02T11:19:30;5.20;;;1.40;;
27209;SDS011;14721;42.668;23.386;2023-02-02T11:21:58;3.73;;;1.03;;
27209;SDS011;14721;42.668;23.386;2023-02-02T11:24:33;5.50;;;1.17;;
27209;SDS011;14721;42.668;23.386;2023-02-02T11:27:14;5.03;;;1.13;;
27209;SDS011;14721;42.668;23.386;2023-02-02T11:29:48;1.47;;;1.20;;
27209;SDS011;14721;42.668;23.386;2023-02-02T11:32:32;5.77;;;1.43;;
27209;SDS011;14721;42.668;23.386;2023-02-02T11:42:58;7.87;;;1.53;;
27209;SDS011;14721;42.668;23.386;2023-02-02T11:45:52;2.30;;;1.20;;
27209;SDS011;14721;42.668;23.386;2023-02-02T11:48:27;3.07;;;1.17;;
27209;SDS011;14721;42.668;23.386;2023-02-02T11:51:00;4.83;;;1.40;;
27209;SDS011;14721;42.668;23.386;2023-02-02T11:53:34;2.93;;;1.00;;
27209;SDS011;14721;42.668;23.386;2023-02-02T11:56:21;2.77;;;1.20;;
27209;SDS011;14721;42.668;23.386;2023-02-02T11:58:52;3.73;;;1.53;;
27209;SDS011;14721;42.668;23.386;2023-02-02T12:04:00;2.83;;;1.30;;
27209;SDS011;14721;42.668;23.386;2023-02-02T12:06:51;3.10;;;1.37;;
27209;SDS011;14721;42.668;23.386;2023-02-02T12:09:20;3.97;;;1.40;;
27209;SDS011;14721;42.668;23.386;2023-02-02T12:17:16;4.07;;;1.40;;
27209;SDS011;14721;42.668;23.386;2023-02-02T12:25:31;7.40;;;2.10;;
27209;SDS011;14721;42.668;23.386;2023-02-02T12:28:22;4.60;;;1.93;;
27209;SDS011;14721;42.668;23.386;2023-02-02T12:58:58;1.97;;;0.90;;
27209;SDS011;14721;42.668;23.386;2023-02-02T13:01:38;1.20;;;0.87;;
27209;SDS011;14721;42.668;23.386;2023-02-02T13:09:48;1.63;;;1.00;;
27209;SDS011;14721;42.668;23.386;2023-02-02T13:12:26;2.00;;;1.17;;
27209;SDS011;14721;42.668;23.386;2023-02-02T13:15:05;4.33;;;1.40;;
27209;SDS011;14721;42.668;23.386;2023-02-02T13:17:50;2.53;;;1.13;;
27209;SDS011;14721;42.668;23.386;2023-02-02T13:20:35;3.37;;;0.90;;
27209;SDS011;14721;42.668;23.386;2023-02-02T13:23:16;1.43;;;1.00;;
27209;SDS011;14721;42.668;23.386;2023-02-02T13:26:04;2.43;;;0.73;;
27209;SDS011;14721;42.668;23.386;2023-02-02T13:28:47;1.37;;;1.00;;
27209;SDS011;14721;42.668;23.386;2023-02-02T13:34:12;2.80;;;1.00;;
27209;SDS011;14721;42.668;23.386;2023-02-02T13:36:43;2.43;;;1.10;;
27209;SDS011;14721;42.668;23.386;2023-02-02T13:39:19;3.30;;;1.03;;
27209;SDS011;14721;42.668;23.386;2023-02-02T13:41:58;1.90;;;0.90;;
27209;SDS011;14721;42.668;23.386;2023-02-02T13:44:36;2.43;;;1.00;;
27209;SDS011;14721;42.668;23.386;2023-02-02T13:47:48;1.70;;;0.70;;
27209;SDS011;14721;42.668;23.386;2023-02-02T13:50:08;2.33;;;1.00;;
27209;SDS011;14721;42.668;23.386;2023-02-02T13:58:14;1.90;;;1.00;;
27209;SDS011;14721;42.668;23.386;2023-02-02T14:01:06;2.17;;;0.90;;
27209;SDS011;14721;42.668;23.386;2023-02-02T14:03:39;3.47;;;1.43;;
27209;SDS011;14721;42.668;23.386;2023-02-02T14:08:32;2.17;;;0.97;;
27209;SDS011;14721;42.668;23.386;2023-02-02T14:10:58;4.13;;;1.07;;
27209;SDS011;14721;42.668;23.386;2023-02-02T14:13:45;3.60;;;1.50;;
27209;SDS011;14721;42.668;23.386;2023-02-02T14:18:57;2.10;;;1.20;;
27209;SDS011;14721;42.668;23.386;2023-02-02T14:23:56;1.63;;;0.83;;
27209;SDS011;14721;42.668;23.386;2023-02-02T14:26:39;2.40;;;1.03;;
27209;SDS011;14721;42.668;23.386;2023-02-02T14:31:59;5.80;;;1.03;;
27209;SDS011;14721;42.668;23.386;2023-02-02T14:34:32;5.10;;;0.83;;
27209;SDS011;14721;42.668;23.386;2023-02-02T14:45:44;1.47;;;1.10;;
27209;SDS011;14721;42.668;23.386;2023-02-02T14:48:18;6.23;;;1.50;;
27209;SDS011;14721;42.668;23.386;2023-02-02T14:50:50;4.63;;;1.60;;
27209;SDS011;14721;42.668;23.386;2023-02-02T14:53:23;7.53;;;1.70;;
27209;SDS011;14721;42.668;23.386;2023-02-02T14:58:39;4.00;;;2.17;;
27209;SDS011;14721;42.668;23.386;2023-02-02T15:06:42;3.70;;;1.80;;
27209;SDS011;14721;42.668;23.386;2023-02-02T15:14:29;3.90;;;1.97;;
27209;SDS011;14721;42.668;23.386;2023-02-02T15:16:55;3.40;;;1.83;;
27209;SDS011;14721;42.668;23.386;2023-02-02T15:19:30;2.27;;;1.20;;
27209;SDS011;14721;42.668;23.386;2023-02-02T15:22:05;3.47;;;1.80;;
27209;SDS011;14721;42.668;23.386;2023-02-02T15:24:58;2.03;;;1.30;;
27209;SDS011;14721;42.668;23.386;2023-02-02T15:27:28;1.17;;;0.70;;
27209;SDS011;14721;42.668;23.386;2023-02-02T15:29:55;3.63;;;1.50;;
27209;SDS011;14721;42.668;23.386;2023-02-02T15:32:26;1.70;;;0.90;;
27209;SDS011;14721;42.668;23.386;2023-02-02T15:34:56;1.37;;;0.83;;
27209;SDS011;14721;42.668;23.386;2023-02-02T15:37:27;2.47;;;0.80;;
27209;SDS011;14721;42.668;23.386;2023-02-02T15:40:04;0.70;;;0.67;;
27209;SDS011;14721;42.668;23.386;2023-02-02T15:42:41;1.53;;;0.80;;
27209;SDS011;14721;42.668;23.386;2023-02-02T15:47:56;2.10;;;0.93;;
27209;SDS011;14721;42.668;23.386;2023-02-02T15:50:23;5.03;;;1.13;;
27209;SDS011;14721;42.668;23.386;2023-02-02T15:52:52;2.20;;;1.50;;
27209;SDS011;14721;42.668;23.386;2023-02-02T15:57:49;2.53;;;1.40;;
27209;SDS011;14721;42.668;23.386;2023-02-02T16:02:45;3.43;;;1.70;;
27209;SDS011;14721;42.668;23.386;2023-02-02T16:08:01;1.50;;;1.00;;
27209;SDS011;14721;42.668;23.386;2023-02-02T16:11:10;0.83;;;0.80;;
27209;SDS011;14721;42.668;23.386;2023-02-02T16:13:36;1.50;;;0.70;;
27209;SDS011;14721;42.668;23.386;2023-02-02T16:16:05;1.07;;;0.70;;
27209;SDS011;14721;42.668;23.386;2023-02-02T16:18:45;1.73;;;1.00;;
27209;SDS011;14721;42.668;23.386;2023-02-02T16:21:14;1.77;;;0.83;;
27209;SDS011;14721;42.668;23.386;2023-02-02T16:23:46;1.87;;;1.00;;
27209;SDS011;14721;42.668;23.386;2023-02-02T16:26:12;2.87;;;1.07;;
27209;SDS011;14721;42.668;23.386;2023-02-02T16:28:40;1.43;;;1.00;;
27209;SDS011;14721;42.668;23.386;2023-02-02T16:31:06;1.97;;;0.63;;
27209;SDS011;14721;42.668;23.386;2023-02-02T16:33:34;1.63;;;0.90;;
27209;SDS011;14721;42.668;23.386;2023-02-02T16:38:49;2.23;;;1.40;;
27209;SDS011;14721;42.668;23.386;2023-02-02T16:43:54;3.53;;;1.70;;
27209;SDS011;14721;42.668;23.386;2023-02-02T16:49:21;1.63;;;0.93;;
27209;SDS011;14721;42.668;23.386;2023-02-02T16:52:05;2.80;;;1.10;;
27209;SDS011;14721;42.668;23.386;2023-02-02T16:54:34;3.00;;;1.10;;
27209;SDS011;14721;42.668;23.386;2023-02-02T16:57:00;5.63;;;2.40;;
27209;SDS011;14721;42.668;23.386;2023-02-02T16:59:31;2.97;;;1.30;;
27209;SDS011;14721;42.668;23.386;2023-02-02T17:02:42;2.67;;;1.27;;
27209;SDS011;14721;42.668;23.386;2023-02-02T17:04:59;6.77;;;1.60;;
27209;SDS011;14721;42.668;23.386;2023-02-02T17:07:29;1.63;;;1.30;;
27209;SDS011;14721;42.668;23.386;2023-02-02T17:12:44;9.17;;;3.97;;
27209;SDS011;14721;42.668;23.386;2023-02-02T17:17:41;6.20;;;2.23;;
27209;SDS011;14721;42.668;23.386;2023-02-02T17:20:07;4.17;;;2.20;;
27209;SDS011;14721;42.668;23.386;2023-02-02T17:22:36;3.30;;;2.10;;
27209;SDS011;14721;42.668;23.386;2023-02-02T17:25:05;3.97;;;2.07;;
27209;SDS011;14721;42.668;23.386;2023-02-02T17:27:31;4.37;;;1.80;;
27209;SDS011;14721;42.668;23.386;2023-02-02T17:29:59;4.87;;;1.80;;
27209;SDS011;14721;42.668;23.386;2023-02-02T17:32:26;2.67;;;1.57;;
27209;SDS011;14721;42.668;23.386;2023-02-02T17:34:52;2.73;;;1.43;;
27209;SDS011;14721;42.668;23.386;2023-02-02T17:37:17;1.80;;;1.23;;
27209;SDS011;14721;42.668;23.386;2023-02-02T17:39:43;3.03;;;1.30;;
27209;SDS011;14721;42.668;23.386;2023-02-02T17:42:15;3.07;;;1.37;;
27209;SDS011;14721;42.668;23.386;2023-02-02T17:44:52;3.23;;;1.20;;
27209;SDS011;14721;42.668;23.386;2023-02-02T17:47:18;1.93;;;1.10;;
27209;SDS011;14721;42.668;23.386;2023-02-02T17:49:43;2.63;;;1.40;;
27209;SDS011;14721;42.668;23.386;2023-02-02T17:52:09;0.87;;;0.70;;
27209;SDS011;14721;42.668;23.386;2023-02-02T17:54:37;4.13;;;1.23;;
27209;SDS011;14721;42.668;23.386;2023-02-02T17:57:03;1.77;;;1.00;;
27209;SDS011;14721;42.668;23.386;2023-02-02T17:59:29;2.53;;;1.00;;